Time;durP1;ratioP1;P1;durP2;ratioP2;P2;SDS_P1;SDS_P2;PMS_P1;PMS_P2;Temp;Humidity;BMP_temperature;BMP_pressure;BME280_temperature;BME280_humidity;BME280_pressure;Samples;Min_cycle;Max_cycle;Signal;HPM_P1;HPM_P2
2023/09/04 00:01:45;;;;;;;5.00;3.63;;;18.20;87.30;;;;;;5082364;28;20031;-82
2023/09/04 00:04:11;;;;;;;5.88;3.85;;;18.20;87.10;;;;;;5099197;28;20044;-83
2023/09/04 00:06:37;;;;;;;5.90;3.40;;;18.20;87.00;;;;;;5116130;28;20091;-82
2023/09/04 00:09:04;;;;;;;8.73;4.00;;;18.10;87.50;;;;;;5120079;28;20027;-82
2023/09/04 00:11:31;;;;;;;5.03;3.63;;;18.10;87.00;;;;;;5120269;28;20020;-82
2023/09/04 00:13:57;;;;;;;5.32;3.65;;;18.00;87.20;;;;;;5120188;28;20027;-82
2023/09/04 00:16:22;;;;;;;6.95;4.28;;;18.10;87.10;;;;;;5119964;28;20031;-82
2023/09/04 00:18:48;;;;;;;7.63;4.00;;;18.10;86.70;;;;;;5102747;28;20024;-82
2023/09/04 00:21:13;;;;;;;5.85;3.95;;;18.00;86.90;;;;;;5119660;28;20123;-82
2023/09/04 00:23:39;;;;;;;6.78;4.43;;;18.00;87.00;;;;;;5119826;28;20024;-82
2023/09/04 00:26:05;;;;;;;8.63;4.10;;;18.00;87.10;;;;;;5102764;28;20023;-82
2023/09/04 00:28:30;;;;;;;7.18;4.72;;;17.90;87.20;;;;;;5086160;28;20023;-82
2023/09/04 00:30:57;;;;;;;6.60;4.35;;;17.90;87.20;;;;;;5102673;28;20024;-83
2023/09/04 00:33:23;;;;;;;7.32;4.07;;;17.90;87.40;;;;;;5119543;28;20076;-83
2023/09/04 00:35:49;;;;;;;5.72;3.63;;;17.70;87.40;;;;;;5119396;28;20060;-82
2023/09/04 00:38:15;;;;;;;4.80;3.65;;;17.70;87.70;;;;;;5137500;28;20608;-82
2023/09/04 00:40:41;;;;;;;5.28;3.58;;;17.70;87.60;;;;;;5137500;28;20039;-82
2023/09/04 00:43:07;;;;;;;4.95;3.67;;;17.70;87.80;;;;;;5119326;28;20035;-82
2023/09/04 00:45:35;;;;;;;5.10;3.33;;;17.70;87.80;;;;;;5119264;28;20032;-82
2023/09/04 00:48:02;;;;;;;5.38;3.50;;;17.60;87.30;;;;;;5119282;28;20016;-82
2023/09/04 00:50:29;;;;;;;4.30;3.35;;;17.60;87.40;;;;;;5119322;28;20030;-82
2023/09/04 00:53:01;;;;;;;3.92;2.70;;;17.60;87.60;;;;;;5119179;28;20020;-82
2023/09/04 00:55:27;;;;;;;5.78;3.78;;;17.60;87.70;;;;;;5137246;28;20035;-83
2023/09/04 00:57:53;;;;;;;5.45;3.95;;;17.60;87.70;;;;;;5101953;28;20127;-83
2023/09/04 01:00:22;;;;;;;6.25;4.30;;;17.60;87.80;;;;;;5118918;28;20123;-83
2023/09/04 01:02:48;;;;;;;7.28;3.97;;;17.50;87.90;;;;;;5136981;28;20026;-82
2023/09/04 01:05:14;;;;;;;6.97;4.40;;;17.50;88.10;;;;;;5118937;28;20031;-82
2023/09/04 01:07:44;;;;;;;6.85;4.28;;;17.50;88.10;;;;;;5102004;28;20046;-82
2023/09/04 01:10:11;;;;;;;7.78;4.28;;;17.50;88.00;;;;;;5119061;28;20011;-82
2023/09/04 01:13:15;;;;;;;6.75;3.95;;;17.50;87.90;;;;;;5102159;28;20016;-83
2023/09/04 01:15:41;;;;;;;6.32;4.30;;;17.50;87.60;;;;;;5103268;28;20032;-83
2023/09/04 01:18:09;;;;;;;6.75;4.45;;;17.40;87.80;;;;;;5101296;28;20024;-83
2023/09/04 01:20:35;;;;;;;6.35;4.45;;;17.40;88.00;;;;;;5085177;28;20019;-82
2023/09/04 01:23:00;;;;;;;6.28;4.55;;;17.30;87.90;;;;;;5101831;28;20043;-83
2023/09/04 01:25:39;;;;;;;7.10;4.30;;;17.40;88.20;;;;;;5136602;28;20035;-82
2023/09/04 01:28:12;;;;;;;6.78;4.40;;;17.30;88.10;;;;;;5118839;28;20027;-83
2023/09/04 01:30:42;;;;;;;6.05;4.43;;;17.40;88.30;;;;;;5118516;28;20023;-82
2023/09/04 01:33:12;;;;;;;6.07;4.18;;;17.30;88.10;;;;;;5136494;28;20028;-83
2023/09/04 01:35:41;;;;;;;6.80;4.20;;;17.30;88.10;;;;;;5118320;28;20046;-82
2023/09/04 01:38:07;;;;;;;6.95;4.25;;;17.30;88.00;;;;;;5101959;28;20091;-82
2023/09/04 01:40:32;;;;;;;6.55;4.57;;;17.30;88.00;;;;;;5118220;28;20080;-83
2023/09/04 01:42:58;;;;;;;5.93;4.20;;;17.30;88.00;;;;;;5101189;28;20035;-82
2023/09/04 01:45:24;;;;;;;6.43;4.28;;;17.30;88.00;;;;;;5084604;28;20024;-82
2023/09/04 01:47:49;;;;;;;6.32;4.32;;;17.20;87.80;;;;;;5101172;28;20023;-83
2023/09/04 01:50:15;;;;;;;9.10;4.63;;;17.20;87.80;;;;;;5117971;28;20053;-82
2023/09/04 01:52:41;;;;;;;7.13;4.50;;;17.10;87.80;;;;;;5101140;28;20028;-83
2023/09/04 01:55:07;;;;;;;5.70;3.72;;;17.10;87.80;;;;;;5084305;28;20180;-83
2023/09/04 01:57:33;;;;;;;7.47;4.32;;;17.10;87.80;;;;;;5135754;28;20044;-83
2023/09/04 01:59:58;;;;;;;7.78;4.60;;;17.10;87.90;;;;;;5118163;28;20028;-83
2023/09/04 02:02:24;;;;;;;7.47;4.35;;;17.10;88.10;;;;;;5117876;28;20108;-82
2023/09/04 02:04:49;;;;;;;7.07;4.43;;;17.10;87.90;;;;;;5117775;28;20095;-83
2023/09/04 02:07:16;;;;;;;7.20;4.95;;;17.10;88.00;;;;;;5135746;28;20038;-82
2023/09/04 02:09:41;;;;;;;6.88;4.18;;;17.10;88.10;;;;;;5101223;28;20020;-82
2023/09/04 02:12:07;;;;;;;5.90;4.05;;;17.10;88.10;;;;;;5117663;28;20023;-82
2023/09/04 02:14:33;;;;;;;7.63;4.53;;;17.10;87.50;;;;;;5135673;28;20034;-83
2023/09/04 02:16:58;;;;;;;5.72;3.90;;;17.00;87.60;;;;;;5135494;28;20030;-83
2023/09/04 02:19:24;;;;;;;4.57;3.30;;;17.00;87.80;;;;;;5100617;28;20040;-82
2023/09/04 02:21:50;;;;;;;7.10;4.25;;;16.90;87.60;;;;;;5135412;28;20072;-82
2023/09/04 02:24:15;;;;;;;4.82;3.70;;;16.80;87.90;;;;;;5117398;28;20055;-82
2023/09/04 02:26:41;;;;;;;6.25;4.47;;;16.80;88.30;;;;;;5117360;28;20039;-83
2023/09/04 02:29:06;;;;;;;5.72;4.32;;;16.80;88.30;;;;;;5083352;28;20095;-82
2023/09/04 02:31:34;;;;;;;9.27;4.35;;;16.80;88.40;;;;;;5099800;28;20028;-82
2023/09/04 02:33:59;;;;;;;6.13;4.35;;;16.80;88.40;;;;;;5117058;28;20047;-83
2023/09/04 02:36:26;;;;;;;8.30;4.47;;;16.80;88.50;;;;;;5100333;28;20024;-83
2023/09/04 02:38:51;;;;;;;7.22;4.63;;;16.80;88.60;;;;;;5117270;28;20076;-83
2023/09/04 02:41:17;;;;;;;6.03;4.18;;;16.80;88.60;;;;;;5116983;28;20036;-82
2023/09/04 02:43:43;;;;;;;6.88;4.50;;;16.70;88.30;;;;;;5117185;28;20061;-82
2023/09/04 02:46:08;;;;;;;7.85;4.57;;;16.60;88.60;;;;;;5116921;28;20103;-83
2023/09/04 02:48:34;;;;;;;7.25;4.10;;;16.60;89.00;;;;;;5100165;28;20047;-83
2023/09/04 02:51:00;;;;;;;6.45;4.30;;;16.60;89.00;;;;;;5134900;28;20027;-83
2023/09/04 02:53:27;;;;;;;7.22;4.70;;;16.50;89.10;;;;;;5117036;28;20020;-82
2023/09/04 02:55:53;;;;;;;5.72;3.75;;;16.50;89.20;;;;;;5116918;28;20045;-82
2023/09/04 02:58:21;;;;;;;5.88;3.80;;;16.50;89.20;;;;;;5113305;28;20056;-82
2023/09/04 03:00:47;;;;;;;7.53;4.25;;;16.50;89.10;;;;;;5096433;28;20032;-82
2023/09/04 03:03:12;;;;;;;5.25;3.92;;;16.50;89.20;;;;;;5096415;28;20031;-82
2023/09/04 03:05:39;;;;;;;6.45;4.88;;;16.50;89.40;;;;;;5113220;28;20054;-82
2023/09/04 03:08:05;;;;;;;5.63;4.10;;;16.50;89.50;;;;;;5113491;28;20024;-83
2023/09/04 03:10:31;;;;;;;10.02;4.53;;;16.50;89.60;;;;;;5113309;28;20024;-82
2023/09/04 03:12:56;;;;;;;8.52;5.20;;;16.50;89.50;;;;;;5096459;28;20020;-82
2023/09/04 03:15:22;;;;;;;6.13;4.53;;;16.50;89.70;;;;;;5113095;28;20032;-82
2023/09/04 03:17:48;;;;;;;7.22;4.63;;;16.50;89.70;;;;;;5096060;28;20058;-83
2023/09/04 03:20:19;;;;;;;5.05;3.72;;;16.50;90.00;;;;;;5096195;28;20039;-83
2023/09/04 03:22:45;;;;;;;5.88;4.13;;;16.40;89.80;;;;;;5113273;28;20034;-83
2023/09/04 03:25:11;;;;;;;7.63;4.40;;;16.30;89.80;;;;;;5112943;28;20032;-83
2023/09/04 03:27:37;;;;;;;6.78;4.93;;;16.30;90.00;;;;;;5096192;28;20038;-82
2023/09/04 03:30:03;;;;;;;8.45;5.53;;;16.40;90.00;;;;;;5112877;28;20545;-83
2023/09/04 03:32:29;;;;;;;7.57;5.53;;;16.40;90.00;;;;;;5113082;28;20025;-82
2023/09/04 03:34:54;;;;;;;7.63;5.32;;;16.40;90.00;;;;;;5095988;28;20115;-82
2023/09/04 03:37:20;;;;;;;8.40;5.80;;;16.40;90.10;;;;;;5112788;28;20091;-82
2023/09/04 03:39:45;;;;;;;8.80;5.25;;;16.40;90.10;;;;;;5112892;28;20036;-83
2023/09/04 03:42:11;;;;;;;8.38;5.35;;;16.40;90.10;;;;;;5095813;28;20039;-82
2023/09/04 03:44:37;;;;;;;7.03;5.18;;;16.40;90.20;;;;;;5112790;28;20039;-82
2023/09/04 03:47:03;;;;;;;7.65;5.13;;;16.30;90.10;;;;;;5112681;28;20032;-82
2023/09/04 03:49:29;;;;;;;7.72;5.40;;;16.30;90.20;;;;;;5112739;28;20552;-82
2023/09/04 03:51:54;;;;;;;8.70;6.03;;;16.30;90.20;;;;;;5112766;28;20017;-82
2023/09/04 03:54:21;;;;;;;8.30;5.47;;;16.30;90.30;;;;;;5112706;28;20028;-83
2023/09/04 03:56:47;;;;;;;8.40;5.25;;;16.30;90.40;;;;;;5118020;28;20028;-82
2023/09/04 03:59:12;;;;;;;9.65;5.90;;;16.30;90.30;;;;;;5099289;28;20019;-82
2023/09/04 04:01:38;;;;;;;10.57;6.28;;;16.30;90.70;;;;;;5115972;28;20032;-82
2023/09/04 04:04:04;;;;;;;10.25;6.55;;;16.30;90.30;;;;;;5115955;28;20032;-83
2023/09/04 04:06:29;;;;;;;11.13;6.93;;;16.30;90.30;;;;;;5134107;28;20027;-82
2023/09/04 04:08:55;;;;;;;10.82;6.68;;;16.40;90.40;;;;;;5116042;28;20051;-82
2023/09/04 04:11:22;;;;;;;11.18;6.90;;;16.40;90.40;;;;;;5116232;28;20024;-83
2023/09/04 04:13:48;;;;;;;10.45;6.80;;;16.40;90.40;;;;;;5115879;28;20024;-82
2023/09/04 04:16:14;;;;;;;10.00;6.80;;;16.40;90.40;;;;;;5116214;28;20008;-83
2023/09/04 04:18:39;;;;;;;9.93;6.88;;;16.40;90.30;;;;;;5115956;28;20120;-83
2023/09/04 04:21:05;;;;;;;11.82;6.60;;;16.40;90.30;;;;;;5082175;28;20035;-82
2023/09/04 04:23:33;;;;;;;13.18;7.05;;;16.40;90.20;;;;;;5115959;28;20062;-82
2023/09/04 04:25:58;;;;;;;9.45;6.75;;;16.30;90.30;;;;;;5116176;28;20035;-83
2023/09/04 04:28:24;;;;;;;10.90;7.43;;;16.30;90.40;;;;;;5115875;28;20016;-83
2023/09/04 04:30:50;;;;;;;11.60;6.95;;;16.30;90.30;;;;;;5098987;28;20034;-83
2023/09/04 04:33:15;;;;;;;11.63;7.28;;;16.20;90.40;;;;;;5115963;28;20031;-83
2023/09/04 04:35:42;;;;;;;11.60;7.07;;;16.20;90.40;;;;;;5098785;28;20134;-83
2023/09/04 04:38:08;;;;;;;12.63;7.28;;;16.20;90.80;;;;;;5133872;28;20031;-83
2023/09/04 04:40:35;;;;;;;12.15;7.50;;;16.20;90.50;;;;;;5115686;28;20031;-82
2023/09/04 04:43:01;;;;;;;11.52;7.20;;;16.20;90.60;;;;;;5115864;28;20045;-81
2023/09/04 04:45:27;;;;;;;11.50;7.45;;;16.30;90.60;;;;;;5081906;28;20043;-83
2023/09/04 04:47:52;;;;;;;11.55;7.68;;;16.30;90.50;;;;;;5115791;28;20039;-83
2023/09/04 04:50:18;;;;;;;10.70;7.03;;;16.20;90.50;;;;;;5098951;28;20020;-83
2023/09/04 04:52:43;;;;;;;12.68;7.63;;;16.20;90.60;;;;;;5116041;28;20027;-83
2023/09/04 04:55:09;;;;;;;10.45;6.82;;;16.20;90.60;;;;;;5102295;28;20034;-83
2023/09/04 04:57:35;;;;;;;36.53;8.65;;;16.20;90.70;;;;;;5118840;28;20061;-83
2023/09/04 05:00:06;;;;;;;10.77;7.38;;;16.20;90.70;;;;;;5119276;28;20069;-83
2023/09/04 05:02:36;;;;;;;12.35;7.38;;;16.20;90.70;;;;;;5137197;28;20024;-82
2023/09/04 05:05:02;;;;;;;12.65;7.93;;;16.20;90.70;;;;;;5085890;28;20027;-83
2023/09/04 05:07:31;;;;;;;12.95;8.07;;;16.20;90.70;;;;;;5119251;28;20012;-84
2023/09/04 05:09:57;;;;;;;10.90;7.63;;;16.20;90.80;;;;;;5102444;28;20027;-82
2023/09/04 05:12:23;;;;;;;13.45;7.65;;;16.20;90.80;;;;;;5119007;28;20083;-82
2023/09/04 05:14:49;;;;;;;10.75;7.28;;;16.20;90.80;;;;;;5085519;28;20028;-83
2023/09/04 05:17:15;;;;;;;12.70;7.75;;;16.20;90.80;;;;;;5119163;28;20095;-83
2023/09/04 05:19:41;;;;;;;15.20;7.97;;;16.20;90.90;;;;;;5137145;28;20027;-84
2023/09/04 05:22:07;;;;;;;12.02;7.53;;;16.20;90.90;;;;;;5085177;28;20031;-84
2023/09/04 05:24:33;;;;;;;14.00;7.78;;;16.20;91.00;;;;;;5118477;28;20050;-83
2023/09/04 05:26:58;;;;;;;12.75;8.05;;;16.20;91.10;;;;;;5101791;28;20020;-81
2023/09/04 05:29:24;;;;;;;12.07;8.00;;;16.20;91.20;;;;;;5101489;28;20386;-81
2023/09/04 05:31:51;;;;;;;13.20;7.72;;;16.20;91.30;;;;;;5118366;28;20039;-83
2023/09/04 05:34:17;;;;;;;14.00;8.25;;;16.20;91.30;;;;;;5118795;28;20031;-81
2023/09/04 05:36:43;;;;;;;11.90;8.02;;;16.20;91.30;;;;;;5118149;28;20049;-81
2023/09/04 05:39:09;;;;;;;13.60;8.43;;;16.20;91.40;;;;;;5118060;28;20077;-81
2023/09/04 05:41:35;;;;;;;14.38;9.00;;;16.20;91.40;;;;;;5101297;28;20028;-81
2023/09/04 05:44:01;;;;;;;15.20;8.73;;;16.20;91.50;;;;;;5084669;28;20111;-82
2023/09/04 05:46:27;;;;;;;13.75;8.70;;;16.20;91.60;;;;;;5101483;28;20027;-83
2023/09/04 05:48:53;;;;;;;15.32;9.15;;;16.20;91.70;;;;;;5084877;28;20019;-82
2023/09/04 05:51:19;;;;;;;14.70;8.73;;;16.20;91.80;;;;;;5118034;28;20026;-81
2023/09/04 05:53:44;;;;;;;14.68;9.18;;;16.20;91.90;;;;;;5101003;28;20032;-82
2023/09/04 05:56:11;;;;;;;17.30;9.13;;;16.30;91.90;;;;;;5100993;28;20099;-82
2023/09/04 05:58:45;;;;;;;15.90;9.07;;;16.30;92.00;;;;;;5100872;28;20055;-82
2023/09/04 06:01:11;;;;;;;17.30;9.80;;;16.30;92.10;;;;;;5135790;28;20024;-80
2023/09/04 06:03:37;;;;;;;15.50;9.70;;;16.30;92.10;;;;;;5117908;28;20033;-83
2023/09/04 06:06:03;;;;;;;16.60;9.98;;;16.40;92.20;;;;;;5099907;28;20032;-85
2023/09/04 06:08:33;;;;;;;15.48;9.60;;;16.40;92.20;;;;;;5135856;28;20028;-83
2023/09/04 06:11:00;;;;;;;16.30;9.57;;;16.40;92.30;;;;;;5135866;28;20011;-82
2023/09/04 06:13:26;;;;;;;17.00;9.82;;;16.50;92.40;;;;;;5117888;28;20030;-84
2023/09/04 06:15:52;;;;;;;15.40;9.52;;;16.50;92.40;;;;;;5100989;28;20044;-83
2023/09/04 06:18:21;;;;;;;15.68;9.68;;;16.50;92.60;;;;;;5135526;28;20073;-83
2023/09/04 06:20:47;;;;;;;15.07;9.27;;;16.50;92.60;;;;;;5085036;28;20028;-84
2023/09/04 06:23:13;;;;;;;17.30;10.65;;;16.60;92.70;;;;;;5100886;28;20058;-84
2023/09/04 06:25:41;;;;;;;18.33;10.00;;;16.60;92.90;;;;;;5100798;28;20023;-83
2023/09/04 06:28:07;;;;;;;16.33;9.55;;;16.60;93.00;;;;;;5118277;28;20020;-83
2023/09/04 06:30:34;;;;;;;18.80;9.68;;;16.60;93.00;;;;;;5135369;28;20023;-83
2023/09/04 06:33:00;;;;;;;18.20;10.05;;;16.70;93.10;;;;;;5100355;28;20026;-83
2023/09/04 06:35:25;;;;;;;16.45;9.45;;;16.70;93.10;;;;;;5135517;28;20382;-85
2023/09/04 06:37:51;;;;;;;14.63;8.88;;;16.70;93.30;;;;;;5117203;28;20028;-81
2023/09/04 06:40:17;;;;;;;15.02;9.23;;;16.80;93.30;;;;;;5117343;28;20069;-82
2023/09/04 06:42:43;;;;;;;15.13;9.13;;;16.80;93.30;;;;;;5117540;28;20039;-83
2023/09/04 06:45:09;;;;;;;16.55;9.60;;;16.80;93.70;;;;;;5117108;28;20035;-83
2023/09/04 06:47:35;;;;;;;14.88;8.75;;;16.90;93.80;;;;;;5100289;28;20027;-82
2023/09/04 06:50:01;;;;;;;14.23;8.93;;;16.90;93.70;;;;;;5116944;28;20555;-82
2023/09/04 06:52:27;;;;;;;13.02;8.73;;;17.00;93.90;;;;;;5134929;28;20056;-83
2023/09/04 06:54:52;;;;;;;14.55;8.77;;;17.00;93.90;;;;;;5100226;28;20035;-83
2023/09/04 06:57:18;;;;;;;13.27;8.50;;;17.10;93.90;;;;;;5134514;28;20035;-82
2023/09/04 06:59:44;;;;;;;13.73;8.70;;;17.20;93.90;;;;;;5117083;28;20035;-82
2023/09/04 07:02:09;;;;;;;13.50;8.57;;;17.20;93.90;;;;;;5117010;28;20032;-83
2023/09/04 07:04:35;;;;;;;13.18;8.55;;;17.30;93.90;;;;;;5134872;28;20035;-82
2023/09/04 07:07:01;;;;;;;12.75;7.78;;;17.40;94.10;;;;;;5116922;28;20041;-82
2023/09/04 07:09:26;;;;;;;12.85;8.10;;;17.40;93.90;;;;;;5099932;28;20050;-83
2023/09/04 07:11:52;;;;;;;11.88;7.47;;;17.50;93.80;;;;;;5083036;28;20035;-83
2023/09/04 07:14:18;;;;;;;13.30;8.48;;;17.50;93.60;;;;;;5083001;28;20023;-82
2023/09/04 07:16:43;;;;;;;14.18;8.57;;;17.60;93.70;;;;;;5082803;28;20028;-83
2023/09/04 07:19:09;;;;;;;13.65;8.43;;;17.60;93.70;;;;;;5116559;28;20036;-83
2023/09/04 07:21:36;;;;;;;11.07;7.25;;;17.70;93.60;;;;;;5116375;28;20061;-83
2023/09/04 07:24:03;;;;;;;10.90;7.20;;;17.70;93.70;;;;;;5099821;28;20027;-83
2023/09/04 07:26:29;;;;;;;12.80;8.07;;;17.80;93.70;;;;;;5116442;28;20081;-82
2023/09/04 07:28:55;;;;;;;10.13;6.65;;;17.90;93.60;;;;;;5134406;28;20030;-83
2023/09/04 07:31:21;;;;;;;12.75;7.70;;;17.90;93.60;;;;;;5116557;28;20027;-82
2023/09/04 07:33:47;;;;;;;12.27;7.30;;;18.00;93.80;;;;;;5082647;28;20031;-84
2023/09/04 07:36:13;;;;;;;12.57;7.88;;;18.00;93.80;;;;;;5099821;28;20084;-83
2023/09/04 07:38:39;;;;;;;11.95;8.30;;;18.10;93.80;;;;;;5116219;28;20440;-83
2023/09/04 07:41:05;;;;;;;11.35;7.95;;;18.20;93.60;;;;;;5099554;28;20028;-83
2023/09/04 07:43:32;;;;;;;12.90;7.57;;;18.20;93.50;;;;;;5116431;28;20114;-83
2023/09/04 07:45:58;;;;;;;13.40;7.50;;;18.30;93.30;;;;;;5116371;28;20034;-83
2023/09/04 07:48:24;;;;;;;10.73;7.13;;;18.40;93.30;;;;;;5134227;28;20034;-83
2023/09/04 07:50:52;;;;;;;10.60;6.90;;;18.50;93.10;;;;;;5099343;28;20051;-83
2023/09/04 07:53:18;;;;;;;11.98;7.65;;;18.50;93.30;;;;;;5134330;28;20024;-83
2023/09/04 07:55:45;;;;;;;8.38;6.38;;;18.60;93.10;;;;;;5116222;28;20099;-83
2023/09/04 07:58:10;;;;;;;9.98;6.78;;;18.70;93.00;;;;;;5115970;28;20410;-82
2023/09/04 08:00:36;;;;;;;11.52;6.78;;;18.70;93.10;;;;;;5099288;28;20035;-83
2023/09/04 08:03:03;;;;;;;10.98;7.50;;;18.80;92.90;;;;;;5099475;28;20198;-83
2023/09/04 08:05:29;;;;;;;9.35;5.90;;;18.90;92.80;;;;;;5133912;28;20038;-81
2023/09/04 08:07:54;;;;;;;9.18;6.43;;;19.00;92.50;;;;;;5098917;28;20043;-82
2023/09/04 08:10:20;;;;;;;8.90;5.97;;;19.10;92.40;;;;;;5115984;28;20039;-82
2023/09/04 08:12:45;;;;;;;10.82;5.80;;;19.20;92.40;;;;;;5099033;28;20024;-82
2023/09/04 08:15:11;;;;;;;8.32;6.30;;;19.20;92.30;;;;;;5098931;28;20034;-82
2023/09/04 08:17:37;;;;;;;7.88;5.40;;;19.30;92.10;;;;;;5099065;28;20028;-83
2023/09/04 08:20:03;;;;;;;9.10;5.63;;;19.40;92.00;;;;;;5099054;28;20028;-82
2023/09/04 08:22:29;;;;;;;9.63;5.75;;;19.40;91.70;;;;;;5115785;28;20024;-83
2023/09/04 08:24:54;;;;;;;8.27;5.93;;;19.50;91.70;;;;;;5133799;28;20032;-82
2023/09/04 08:27:20;;;;;;;7.60;5.20;;;19.50;91.70;;;;;;5115722;28;20031;-82
2023/09/04 08:29:46;;;;;;;8.40;5.60;;;19.70;91.40;;;;;;5085797;28;20051;-82
2023/09/04 08:32:11;;;;;;;9.23;5.57;;;19.80;91.30;;;;;;5137578;28;20024;-82
2023/09/04 08:34:38;;;;;;;9.15;5.60;;;19.80;90.80;;;;;;5102388;28;20032;-82
2023/09/04 08:37:03;;;;;;;11.02;5.88;;;19.90;90.90;;;;;;5119846;28;20039;-82
2023/09/04 08:39:29;;;;;;;8.18;5.57;;;19.90;90.70;;;;;;5102559;28;20055;-82
2023/09/04 08:41:55;;;;;;;8.95;5.53;;;20.00;91.10;;;;;;5119417;28;20035;-82
2023/09/04 08:44:21;;;;;;;8.07;5.60;;;20.10;91.20;;;;;;5137522;28;20083;-81
2023/09/04 08:46:50;;;;;;;8.15;5.53;;;20.20;91.20;;;;;;5137244;28;20383;-80
2023/09/04 08:49:19;;;;;;;8.75;5.53;;;20.30;91.10;;;;;;5119204;28;20016;-82
2023/09/04 08:51:45;;;;;;;9.68;5.70;;;20.40;90.50;;;;;;5137093;28;20020;-81
2023/09/04 08:54:11;;;;;;;7.68;5.43;;;20.40;90.30;;;;;;5137269;28;20016;-82
2023/09/04 08:56:37;;;;;;;8.80;5.13;;;20.50;90.80;;;;;;5102150;28;20038;-81
2023/09/04 08:59:03;;;;;;;7.80;4.88;;;20.60;90.60;;;;;;5098969;28;20052;-81
2023/09/04 09:01:33;;;;;;;7.65;5.43;;;20.60;90.60;;;;;;5116483;28;20054;-81
2023/09/04 09:04:02;;;;;;;9.13;5.78;;;20.70;89.60;;;;;;5115609;28;20020;-82
2023/09/04 09:06:28;;;;;;;6.15;4.70;;;20.70;88.80;;;;;;5115651;28;20025;-81
2023/09/04 09:08:56;;;;;;;7.35;5.15;;;20.70;88.10;;;;;;5115505;28;20020;-81
2023/09/04 09:11:22;;;;;;;9.13;5.00;;;20.80;88.80;;;;;;5115682;28;20464;-82
2023/09/04 09:13:48;;;;;;;7.55;4.85;;;20.90;89.60;;;;;;5098580;28;20028;-81
2023/09/04 09:16:18;;;;;;;6.70;4.80;;;21.10;89.10;;;;;;5098442;28;20059;-82
2023/09/04 09:18:44;;;;;;;7.70;5.18;;;21.20;87.70;;;;;;5115363;28;20031;-82
2023/09/04 09:21:27;;;;;;;7.47;4.85;;;21.30;86.90;;;;;;5115277;28;20034;-81
2023/09/04 09:24:16;;;;;;;6.20;4.57;;;21.30;86.80;;;;;;5115368;28;20028;-81
2023/09/04 09:26:45;;;;;;;7.25;4.57;;;21.40;85.10;;;;;;5116122;28;20152;-80
2023/09/04 09:29:13;;;;;;;8.30;4.68;;;21.40;85.20;;;;;;5116035;28;20089;-82
2023/09/04 09:31:39;;;;;;;7.65;4.55;;;21.50;85.20;;;;;;5115158;28;20024;-82
2023/09/04 09:34:06;;;;;;;8.20;4.72;;;21.60;85.10;;;;;;5114908;28;20032;-82
2023/09/04 09:36:31;;;;;;;7.13;4.60;;;21.70;85.10;;;;;;5114915;28;20092;-82
2023/09/04 09:38:57;;;;;;;7.43;4.80;;;21.80;85.10;;;;;;5080941;28;20029;-82
2023/09/04 09:41:23;;;;;;;9.10;4.55;;;21.90;85.30;;;;;;5114857;28;20020;-82
2023/09/04 09:43:49;;;;;;;7.60;4.53;;;22.00;85.50;;;;;;5115856;28;20024;-82
2023/09/04 09:46:18;;;;;;;7.88;4.43;;;22.10;84.90;;;;;;5097899;28;20514;-81
2023/09/04 09:48:45;;;;;;;7.20;4.50;;;22.10;85.50;;;;;;5114967;28;20025;-81
2023/09/04 09:51:11;;;;;;;6.53;4.07;;;22.20;84.70;;;;;;5115668;28;20070;-82
2023/09/04 09:53:47;;;;;;;6.88;4.57;;;22.30;84.50;;;;;;5097823;28;20020;-82
2023/09/04 09:56:14;;;;;;;6.07;4.50;;;22.50;83.90;;;;;;5131777;28;20058;-82
2023/09/04 09:58:41;;;;;;;8.13;4.65;;;22.60;84.30;;;;;;5114154;28;20050;-83
2023/09/04 10:01:08;;;;;;;6.85;4.40;;;22.70;83.50;;;;;;5131349;28;20403;-82
2023/09/04 10:03:35;;;;;;;7.68;3.67;;;22.70;83.00;;;;;;5115265;28;20042;-81
2023/09/04 10:06:06;;;;;;;4.68;3.60;;;22.90;84.00;;;;;;5114237;28;20028;-82
2023/09/04 10:08:44;;;;;;;5.77;3.90;;;23.00;83.30;;;;;;5115338;28;20032;-81
2023/09/04 10:11:13;;;;;;;4.55;3.50;;;23.00;80.10;;;;;;5115511;28;20032;-78
2023/09/04 10:14:01;;;;;;;6.47;3.95;;;23.00;80.50;;;;;;5115094;28;20024;-83
2023/09/04 10:16:40;;;;;;;7.80;3.80;;;23.10;79.70;;;;;;5114070;28;20020;-78
2023/09/04 10:19:09;;;;;;;4.97;3.55;;;23.10;80.70;;;;;;5131098;28;20039;-81
2023/09/04 10:21:40;;;;;;;6.88;3.70;;;23.20;79.90;;;;;;5131120;28;20101;-82
2023/09/04 10:24:11;;;;;;;7.07;3.65;;;23.30;81.00;;;;;;5114069;28;20016;-83
2023/09/04 10:26:46;;;;;;;4.97;3.75;;;23.40;79.20;;;;;;5113840;28;20018;-81
2023/09/04 10:29:17;;;;;;;4.53;3.30;;;23.40;78.10;;;;;;5114886;28;20020;-81
2023/09/04 10:31:43;;;;;;;4.55;3.08;;;23.40;78.30;;;;;;5114698;28;20031;-82
2023/09/04 10:34:09;;;;;;;5.82;2.85;;;23.50;78.80;;;;;;5130656;28;20031;-81
2023/09/04 10:36:37;;;;;;;3.58;2.50;;;23.60;77.30;;;;;;5096718;28;20020;-81
2023/09/04 10:39:03;;;;;;;4.03;2.83;;;23.60;76.80;;;;;;5130687;28;20024;-81
2023/09/04 10:41:31;;;;;;;6.53;3.25;;;23.70;75.20;;;;;;5113468;28;20096;-81
2023/09/04 10:43:56;;;;;;;4.32;3.00;;;23.70;75.80;;;;;;5114520;28;20040;-81
2023/09/04 10:46:23;;;;;;;6.07;2.63;;;23.70;75.10;;;;;;5114441;28;20057;-81
2023/09/04 10:48:52;;;;;;;4.32;3.00;;;23.80;75.70;;;;;;5114507;28;20012;-81
2023/09/04 10:51:32;;;;;;;5.40;2.42;;;23.80;73.70;;;;;;5095902;28;20034;-80
2023/09/04 10:54:00;;;;;;;4.65;2.38;;;23.80;73.50;;;;;;5113430;28;20024;-81
2023/09/04 10:56:25;;;;;;;3.45;2.40;;;23.90;72.30;;;;;;5114370;28;20031;-81
2023/09/04 10:59:02;;;;;;;3.75;2.47;;;23.90;71.00;;;;;;5113134;28;20103;-81
2023/09/04 11:01:38;;;;;;;4.20;2.70;;;23.90;70.70;;;;;;5114277;28;20383;-80
2023/09/04 11:04:05;;;;;;;3.70;2.80;;;23.90;70.80;;;;;;5113303;28;20042;-80
2023/09/04 11:06:34;;;;;;;4.97;2.70;;;23.90;70.80;;;;;;5114128;28;20031;-80
2023/09/04 11:09:02;;;;;;;4.70;3.10;;;23.90;73.10;;;;;;5113191;28;20026;-80
2023/09/04 11:11:27;;;;;;;4.93;2.90;;;24.10;73.80;;;;;;5113221;28;20079;-80
2023/09/04 11:13:59;;;;;;;4.88;2.83;;;24.10;73.20;;;;;;5113032;28;20021;-81
2023/09/04 11:16:28;;;;;;;4.85;2.70;;;24.10;71.40;;;;;;5114083;28;20028;-80
2023/09/04 11:19:05;;;;;;;4.28;3.05;;;24.20;72.80;;;;;;5080247;28;20091;-79
2023/09/04 11:21:33;;;;;;;3.53;2.88;;;24.30;73.50;;;;;;5113953;28;20028;-79
2023/09/04 11:23:58;;;;;;;6.50;3.40;;;24.30;72.50;;;;;;5113066;28;20029;-81
2023/09/04 11:26:24;;;;;;;4.65;3.33;;;24.30;72.20;;;;;;5112872;28;20113;-81
2023/09/04 11:28:49;;;;;;;3.92;2.97;;;24.30;72.00;;;;;;5113786;28;20043;-79
2023/09/04 11:31:17;;;;;;;7.22;2.92;;;24.40;71.20;;;;;;5112863;28;20081;-79
2023/09/04 11:33:48;;;;;;;3.10;2.05;;;24.40;69.80;;;;;;5129680;28;20024;-79
2023/09/04 11:36:14;;;;;;;3.25;2.05;;;24.50;69.10;;;;;;5129803;28;20025;-80
2023/09/04 11:38:40;;;;;;;3.80;2.50;;;24.40;68.80;;;;;;5112785;28;20035;-81
2023/09/04 11:41:16;;;;;;;3.50;2.40;;;24.50;67.10;;;;;;5095987;28;20020;-81
2023/09/04 11:43:42;;;;;;;3.42;2.50;;;24.60;68.90;;;;;;5112808;28;20077;-80
2023/09/04 11:46:09;;;;;;;3.22;2.30;;;24.60;68.70;;;;;;5113659;28;20054;-81
2023/09/04 11:48:35;;;;;;;4.32;2.63;;;24.70;69.00;;;;;;5114014;28;20031;-81
2023/09/04 11:51:04;;;;;;;3.40;2.30;;;24.70;65.40;;;;;;5113129;28;20043;-82
2023/09/04 11:53:30;;;;;;;3.33;2.10;;;24.70;67.00;;;;;;5112832;28;20020;-84
2023/09/04 11:55:57;;;;;;;4.30;2.30;;;24.80;66.70;;;;;;5096358;28;20056;-85
2023/09/04 11:58:23;;;;;;;3.58;2.30;;;24.80;65.70;;;;;;5115565;28;20036;-83
2023/09/04 12:00:48;;;;;;;3.25;2.30;;;24.80;63.20;;;;;;5099726;28;20040;-84
2023/09/04 12:03:14;;;;;;;3.42;2.50;;;24.90;65.20;;;;;;5119596;28;20039;-83
2023/09/04 12:05:41;;;;;;;5.43;2.60;;;24.90;66.60;;;;;;5103793;28;20095;-83
2023/09/04 12:08:06;;;;;;;2.90;2.10;;;24.90;65.10;;;;;;5138559;28;20088;-82
2023/09/04 12:10:33;;;;;;;4.35;2.50;;;24.90;66.00;;;;;;5138043;28;20035;-81
2023/09/04 12:13:00;;;;;;;4.18;2.42;;;25.00;65.10;;;;;;5103148;28;20020;-82
2023/09/04 12:15:35;;;;;;;4.43;2.40;;;25.10;63.00;;;;;;5119989;28;20016;-81
2023/09/04 12:18:03;;;;;;;3.13;2.22;;;25.20;64.10;;;;;;5120038;28;20038;-83
2023/09/04 12:20:42;;;;;;;2.97;2.08;;;25.20;63.10;;;;;;5120763;28;20035;-85
2023/09/04 12:23:08;;;;;;;3.30;2.13;;;25.20;62.50;;;;;;5138268;28;20050;-81
2023/09/04 12:25:36;;;;;;;2.78;1.90;;;25.30;64.70;;;;;;5102872;28;20061;-81
2023/09/04 12:28:05;;;;;;;3.47;2.35;;;25.40;62.30;;;;;;5119776;28;20030;-83
2023/09/04 12:30:35;;;;;;;3.83;2.97;;;25.50;61.30;;;;;;5103527;28;20028;-81
2023/09/04 12:33:00;;;;;;;3.55;2.58;;;25.60;62.80;;;;;;5137613;28;20020;-80
2023/09/04 12:35:29;;;;;;;2.70;2.03;;;25.60;62.80;;;;;;5102426;28;20023;-81
2023/09/04 12:37:54;;;;;;;6.78;2.35;;;25.70;63.60;;;;;;5119515;28;20023;-83
2023/09/04 12:40:21;;;;;;;4.68;2.60;;;25.80;65.60;;;;;;5119409;28;20043;-82
2023/09/04 12:42:47;;;;;;;3.33;2.20;;;25.90;63.30;;;;;;5119684;28;20027;-81